createdAt,value
2023-01-18T00:00:47.689Z,98438.50
2023-01-18T00:03:14.588Z,98444.69
2023-01-18T00:05:41.950Z,98447.31
2023-01-18T00:08:13.256Z,98446.00
2023-01-18T00:10:40.368Z,98444.28
2023-01-18T00:13:07.193Z,98457.00
2023-01-18T00:15:37.061Z,98448.53
2023-01-18T00:18:04.191Z,98446.09
2023-01-18T00:20:31.706Z,98441.53
2023-01-18T00:23:02.233Z,98442.41
2023-01-18T00:25:29.981Z,98437.19
2023-01-18T00:27:57.098Z,98439.84
2023-01-18T00:30:27.239Z,98440.72
2023-01-18T00:32:56.678Z,98445.03
2023-01-18T00:35:24.469Z,98438.69
2023-01-18T00:37:52.464Z,98432.59
2023-01-18T00:40:20.337Z,98429.03
2023-01-18T00:43:05.979Z,98431.72
2023-01-18T00:45:32.748Z,98431.78
2023-01-18T00:47:59.396Z,98426.56
2023-01-18T00:50:26.081Z,98435.78
2023-01-18T00:52:56.919Z,98431.44
2023-01-18T00:55:24.102Z,98434.78
2023-01-18T00:57:50.792Z,98427.84
2023-01-18T01:00:19.750Z,98433.84
2023-01-18T01:02:46.512Z,98432.13
2023-01-18T01:05:40.961Z,98436.31
2023-01-18T01:08:07.862Z,98430.44
2023-01-18T01:10:35.159Z,98431.28
2023-01-18T01:13:20.750Z,98432.16
2023-01-18T01:16:05.866Z,98433.88
2023-01-18T01:18:51.219Z,98442.09
2023-01-18T01:21:36.415Z,98445.41
2023-01-18T01:24:21.589Z,98446.84
2023-01-18T01:26:48.187Z,98450.94
2023-01-18T01:29:15.957Z,98457.78
2023-01-18T01:31:42.716Z,98453.31
2023-01-18T01:34:09.811Z,98458.50
2023-01-18T01:36:36.494Z,98459.28
2023-01-18T01:39:03.264Z,98467.25
2023-01-18T01:41:32.794Z,98475.84
2023-01-18T01:44:17.464Z,98465.69
2023-01-18T01:46:46.638Z,98476.53
2023-01-18T01:49:19.690Z,98466.16
2023-01-18T01:51:50.346Z,98463.63
2023-01-18T01:54:23.653Z,98471.03
2023-01-18T01:56:54.876Z,98469.47
2023-01-18T01:59:22.050Z,98475.03
2023-01-18T02:01:49.654Z,98474.75
2023-01-18T02:04:16.525Z,98482.88
2023-01-18T02:06:43.103Z,98479.47
2023-01-18T02:09:16.077Z,98477.78
2023-01-18T02:11:43.468Z,98474.16
2023-01-18T02:14:15.665Z,98482.13
2023-01-18T02:17:06.506Z,98477.03
2023-01-18T02:19:45.080Z,98469.56
2023-01-18T02:22:11.582Z,98472.25
2023-01-18T02:25:12.234Z,98472.31
2023-01-18T02:27:51.582Z,98474.56
2023-01-18T02:30:31.901Z,98478.91
2023-01-18T02:33:05.125Z,98472.13
2023-01-18T02:35:56.119Z,98481.63
2023-01-18T02:38:44.246Z,98480.72
2023-01-18T02:41:45.459Z,98481.72
2023-01-18T02:44:34.051Z,98483.84
2023-01-18T02:47:01.109Z,98484.28
2023-01-18T02:49:32.118Z,98486.22
2023-01-18T02:52:07.297Z,98485.13
2023-01-18T02:54:40.166Z,98476.25
2023-01-18T02:57:13.509Z,98479.88
2023-01-18T02:59:48.293Z,98487.47
2023-01-18T03:02:17.023Z,98489.47
2023-01-18T03:04:54.190Z,98480.75
2023-01-18T03:07:26.868Z,98485.03
2023-01-18T03:09:54.265Z,98484.84
2023-01-18T03:12:46.088Z,98494.03
2023-01-18T03:15:22.033Z,98484.53
2023-01-18T03:17:53.179Z,98495.94
2023-01-18T03:20:25.749Z,98502.75
2023-01-18T03:23:22.911Z,98503.94
2023-01-18T03:25:51.397Z,98507.75
2023-01-18T03:28:51.909Z,98513.94
2023-01-18T03:31:43.170Z,98514.25
2023-01-18T03:34:38.391Z,98517.50
2023-01-18T03:37:10.603Z,98517.56
2023-01-18T03:39:42.785Z,98525.94
2023-01-18T03:42:14.392Z,98527.75
2023-01-18T03:45:03.736Z,98533.00
2023-01-18T03:47:30.705Z,98539.22
2023-01-18T03:49:58.139Z,98543.84
2023-01-18T03:52:28.482Z,98541.25
2023-01-18T03:55:03.465Z,98538.16
2023-01-18T03:57:38.413Z,98543.81
2023-01-18T04:00:07.314Z,98543.25
2023-01-18T04:02:39.551Z,98543.78
2023-01-18T04:05:07.121Z,98540.59
2023-01-18T04:07:33.774Z,98540.22
2023-01-18T04:10:00.705Z,98549.06
2023-01-18T04:12:28.494Z,98557.03
2023-01-18T04:14:55.080Z,98548.03
2023-01-18T04:17:21.714Z,98548.19
2023-01-18T04:19:48.242Z,98559.44
2023-01-18T04:22:14.899Z,98552.69
2023-01-18T04:24:41.450Z,98549.25
2023-01-18T04:27:08.382Z,98558.06
2023-01-18T04:29:35.131Z,98554.69
2023-01-18T04:32:02.161Z,98563.06
2023-01-18T04:34:28.705Z,98560.31
2023-01-18T04:36:55.330Z,98555.38
2023-01-18T04:39:21.853Z,98562.97
2023-01-18T04:41:48.500Z,98569.47
2023-01-18T04:44:16.165Z,98565.72
2023-01-18T04:46:43.000Z,98563.63
2023-01-18T04:49:15.648Z,98574.63
2023-01-18T04:51:44.103Z,98578.34
2023-01-18T04:54:12.344Z,98583.25
2023-01-18T04:56:39.327Z,98582.06
2023-01-18T04:59:05.956Z,98574.41
2023-01-18T05:01:33.389Z,98571.81
2023-01-18T05:04:00.106Z,98575.78
2023-01-18T05:06:27.142Z,98582.31
2023-01-18T05:08:53.729Z,98586.34
2023-01-18T05:11:23.151Z,98587.19
2023-01-18T05:13:49.866Z,98593.84
2023-01-18T05:16:19.631Z,98597.38
2023-01-18T05:18:47.111Z,98596.47
2023-01-18T05:21:14.282Z,98603.19
2023-01-18T05:23:41.414Z,98601.56
2023-01-18T05:26:14.692Z,98608.22
2023-01-18T05:28:42.473Z,98615.00
2023-01-18T05:31:09.613Z,98613.25
2023-01-18T05:33:36.465Z,98621.31
2023-01-18T05:36:03.465Z,98616.75
2023-01-18T05:38:30.381Z,98619.91
2023-01-18T05:40:57.401Z,98617.47
2023-01-18T05:43:26.180Z,98624.47
2023-01-18T05:45:53.975Z,98629.00
2023-01-18T05:48:21.765Z,98632.84
2023-01-18T05:50:49.127Z,98632.03
2023-01-18T05:53:20.124Z,98629.56
2023-01-18T05:56:01.150Z,98635.53
2023-01-18T05:58:28.321Z,98639.75
2023-01-18T06:00:55.543Z,98651.25
2023-01-18T06:03:23.239Z,98651.22
2023-01-18T06:05:51.416Z,98659.72
2023-01-18T06:08:18.699Z,98655.66
2023-01-18T06:10:53.314Z,98662.63
2023-01-18T06:13:20.462Z,98655.88
2023-01-18T06:15:49.545Z,98655.94
2023-01-18T06:18:16.271Z,98666.03
2023-01-18T06:20:43.232Z,98665.41
2023-01-18T06:23:09.866Z,98679.94
2023-01-18T06:25:37.230Z,98668.78
2023-01-18T06:28:05.081Z,98673.63
2023-01-18T06:30:33.549Z,98685.78
2023-01-18T06:33:04.908Z,98675.94
2023-01-18T06:35:31.485Z,98680.75
2023-01-18T06:37:58.273Z,98682.31
2023-01-18T06:40:25.028Z,98681.34
2023-01-18T06:42:51.854Z,98685.38
2023-01-18T06:45:21.950Z,98694.84
2023-01-18T06:47:49.472Z,98689.53
2023-01-18T06:50:16.568Z,98698.28
2023-01-18T06:52:44.543Z,98702.28
2023-01-18T06:55:13.200Z,98709.22
2023-01-18T06:57:40.031Z,98716.78
2023-01-18T07:00:08.366Z,98724.59
2023-01-18T07:02:36.419Z,98724.03
2023-01-18T07:05:03.896Z,98723.84
2023-01-18T07:07:30.893Z,98730.63
2023-01-18T07:09:57.647Z,98730.84
2023-01-18T07:12:24.336Z,98735.88
2023-01-18T07:14:51.169Z,98728.59
2023-01-18T07:17:17.845Z,98744.13
2023-01-18T07:19:44.799Z,98746.34
2023-01-18T07:22:13.180Z,98748.09
2023-01-18T07:24:39.835Z,98754.56
2023-01-18T07:27:06.531Z,98759.44
2023-01-18T07:29:33.229Z,98743.13
2023-01-18T07:32:01.061Z,98757.47
2023-01-18T07:34:27.797Z,98764.78
2023-01-18T07:36:54.788Z,98768.03
2023-01-18T07:39:21.408Z,98767.53
2023-01-18T07:41:47.998Z,98768.44
2023-01-18T07:44:17.547Z,98772.97
2023-01-18T07:46:44.200Z,98777.13
2023-01-18T07:49:10.965Z,98783.84
2023-01-18T07:51:37.687Z,98787.50
2023-01-18T07:54:04.328Z,98788.31
2023-01-18T07:56:30.943Z,98796.13
2023-01-18T07:58:57.559Z,98798.44
2023-01-18T08:01:24.677Z,98800.06
2023-01-18T08:03:53.521Z,98803.75
2023-01-18T08:06:24.815Z,98808.53
2023-01-18T08:08:52.231Z,98809.44
2023-01-18T08:11:19.585Z,98807.06
2023-01-18T08:13:48.890Z,98816.00
2023-01-18T08:16:16.213Z,98822.28
2023-01-18T08:18:45.153Z,98820.72
2023-01-18T08:21:13.899Z,98828.06
2023-01-18T08:23:41.084Z,98838.25
2023-01-18T08:26:09.300Z,98828.28
2023-01-18T08:28:36.127Z,98834.41
2023-01-18T08:31:17.647Z,98845.97
2023-01-18T08:33:46.928Z,98848.06
2023-01-18T08:36:16.563Z,98853.13
2023-01-18T08:38:43.408Z,98861.06
2023-01-18T08:41:10.062Z,98860.06
2023-01-18T08:43:36.846Z,98861.91
2023-01-18T08:46:03.640Z,98863.97
2023-01-18T08:48:30.334Z,98869.13
2023-01-18T08:51:01.238Z,98867.44
2023-01-18T08:53:29.486Z,98872.75
2023-01-18T08:55:56.545Z,98875.69
2023-01-18T08:58:23.143Z,98879.97
2023-01-18T09:00:50.642Z,98875.19
2023-01-18T09:03:25.834Z,98873.56
2023-01-18T09:05:52.686Z,98882.06
2023-01-18T09:08:19.245Z,98882.88
2023-01-18T09:10:45.807Z,98894.34
2023-01-18T09:13:12.540Z,98895.47
2023-01-18T09:15:39.443Z,98899.00
2023-01-18T09:18:08.079Z,98898.31
2023-01-18T09:20:36.263Z,98904.69
2023-01-18T09:23:07.767Z,98901.66
2023-01-18T09:25:36.651Z,98914.63
2023-01-18T09:28:05.095Z,98908.50
2023-01-18T09:30:32.328Z,98913.09
2023-01-18T09:32:59.533Z,98920.94
2023-01-18T09:35:26.478Z,98915.94
2023-01-18T09:37:55.184Z,98920.34
2023-01-18T09:40:25.078Z,98928.91
2023-01-18T09:42:52.718Z,98930.06
2023-01-18T09:45:32.253Z,98933.53
2023-01-18T09:48:12.956Z,98934.34
2023-01-18T09:50:45.161Z,98924.56
2023-01-18T09:53:40.953Z,98933.03
2023-01-18T09:56:09.763Z,98932.66
2023-01-18T09:58:54.758Z,98932.66
2023-01-18T10:01:27.305Z,98937.19
2023-01-18T10:04:00.752Z,98935.66
2023-01-18T10:06:32.483Z,98946.78
2023-01-18T10:09:01.881Z,98942.66
2023-01-18T10:11:36.512Z,98943.13
2023-01-18T10:14:11.192Z,98938.78
2023-01-18T10:16:38.056Z,98940.47
2023-01-18T10:19:16.215Z,98948.00
2023-01-18T10:22:19.540Z,98952.78
2023-01-18T10:24:59.840Z,98949.94
2023-01-18T10:27:41.542Z,98949.16
2023-01-18T10:30:11.180Z,98951.09
2023-01-18T10:32:39.045Z,98941.19
2023-01-18T10:35:23.727Z,98942.25
2023-01-18T10:37:52.319Z,98942.56
2023-01-18T10:40:18.969Z,98947.69
2023-01-18T10:42:48.373Z,98955.00
2023-01-18T10:45:23.193Z,98947.47
2023-01-18T10:47:51.949Z,98945.78
2023-01-18T10:50:40.016Z,98945.72
2023-01-18T10:53:31.557Z,98951.78
2023-01-18T10:56:10.928Z,98952.06
2023-01-18T10:59:00.389Z,98954.63
2023-01-18T11:01:33.372Z,98955.94
2023-01-18T11:04:07.556Z,98954.06
2023-01-18T11:06:53.699Z,98962.84
2023-01-18T11:09:55.553Z,98957.94
2023-01-18T11:12:41.036Z,98963.16
2023-01-18T11:15:13.999Z,98966.06
2023-01-18T11:18:00.260Z,98975.53
2023-01-18T11:20:52.355Z,98971.16
2023-01-18T11:23:23.194Z,98966.94
2023-01-18T11:25:49.695Z,98962.16
2023-01-18T11:28:24.020Z,98964.88
2023-01-18T11:30:57.108Z,98966.69
2023-01-18T11:33:26.225Z,98962.56
2023-01-18T11:35:59.374Z,98964.28
2023-01-18T11:38:28.651Z,98960.22
2023-01-18T11:41:04.061Z,98964.56
2023-01-18T11:43:33.480Z,98965.56
2023-01-18T11:46:22.352Z,98962.66
2023-01-18T11:49:00.619Z,98965.63
2023-01-18T11:51:40.142Z,98968.50
2023-01-18T11:54:26.769Z,98965.88
2023-01-18T11:56:56.160Z,98957.81
2023-01-18T11:59:31.534Z,98963.88
2023-01-18T12:02:16.860Z,98965.88
2023-01-18T12:05:02.167Z,98960.53
2023-01-18T12:07:34.813Z,98968.66
2023-01-18T12:10:02.095Z,98962.44
2023-01-18T12:12:31.619Z,98955.34
2023-01-18T12:15:01.201Z,98958.41
2023-01-18T12:17:45.958Z,98963.03
2023-01-18T12:20:24.611Z,98960.50
2023-01-18T12:22:57.417Z,98962.25
2023-01-18T12:25:24.050Z,98964.00
2023-01-18T12:28:07.475Z,98965.28
2023-01-18T12:31:02.967Z,98959.47
2023-01-18T12:33:50.113Z,98969.75
2023-01-18T12:36:22.153Z,98962.38
2023-01-18T12:38:55.309Z,98959.03
2023-01-18T12:41:31.547Z,98959.00
2023-01-18T12:44:01.130Z,98960.59
2023-01-18T12:46:31.376Z,98965.97
2023-01-18T12:49:11.351Z,98972.00
2023-01-18T12:51:40.199Z,98974.69
2023-01-18T12:54:31.269Z,98969.44
2023-01-18T12:57:00.049Z,98963.66
2023-01-18T12:59:40.897Z,98969.03
2023-01-18T13:02:45.829Z,98974.94
2023-01-18T13:05:33.877Z,98969.97
2023-01-18T13:08:29.352Z,98970.97
2023-01-18T13:11:05.388Z,98977.06
2023-01-18T13:13:33.252Z,98961.44
2023-01-18T13:16:19.887Z,98973.94
2023-01-18T13:19:09.261Z,98969.28
2023-01-18T13:21:48.229Z,98972.06
2023-01-18T13:24:17.730Z,98974.59
2023-01-18T13:26:44.467Z,98976.91
2023-01-18T13:29:20.360Z,98977.81
2023-01-18T13:31:46.902Z,98978.69
2023-01-18T13:34:47.674Z,98982.78
2023-01-18T13:37:42.971Z,98980.38
2023-01-18T13:40:35.040Z,98985.50
2023-01-18T13:43:01.959Z,98974.34
2023-01-18T13:45:30.554Z,98982.06
2023-01-18T13:48:07.484Z,98988.88
2023-01-18T13:50:38.295Z,98986.88
2023-01-18T13:53:14.250Z,98988.16
2023-01-18T13:55:45.972Z,98988.84
2023-01-18T13:58:29.434Z,98986.94
2023-01-18T14:00:59.174Z,98992.72
2023-01-18T14:03:29.557Z,98994.69
2023-01-18T14:05:57.324Z,99000.78
2023-01-18T14:08:32.521Z,99003.25
2023-01-18T14:11:04.464Z,98996.53
2023-01-18T14:13:51.346Z,99009.22
2023-01-18T14:16:21.484Z,99003.50
2023-01-18T14:18:55.794Z,99014.50
2023-01-18T14:21:44.146Z,99018.13
2023-01-18T14:24:27.168Z,99026.25
2023-01-18T14:26:58.037Z,99027.19
2023-01-18T14:29:48.793Z,99025.44
2023-01-18T14:32:21.721Z,99034.41
2023-01-18T14:35:16.909Z,99032.56
2023-01-18T14:37:43.936Z,99036.84
2023-01-18T14:40:16.700Z,99044.72
2023-01-18T14:42:56.321Z,99045.56
2023-01-18T14:45:30.501Z,99044.81
2023-01-18T14:48:07.911Z,99038.03
2023-01-18T14:50:38.646Z,99048.94
2023-01-18T14:53:07.443Z,99052.78
2023-01-18T14:55:35.156Z,99057.06
2023-01-18T14:58:09.609Z,99062.53
2023-01-18T15:00:46.740Z,99065.13
2023-01-18T15:03:39.843Z,99072.94
2023-01-18T15:06:16.104Z,99072.06
2023-01-18T15:08:46.492Z,99071.88
2023-01-18T15:11:14.205Z,99072.66
2023-01-18T15:13:47.570Z,99084.53
2023-01-18T15:16:20.903Z,99081.03
2023-01-18T15:18:49.823Z,99087.66
2023-01-18T15:21:27.456Z,99086.94
2023-01-18T15:24:02.777Z,99081.66
2023-01-18T15:26:44.408Z,99098.59
2023-01-18T15:29:16.876Z,99096.00
2023-01-18T15:32:12.379Z,99101.13
2023-01-18T15:34:43.183Z,99099.31
2023-01-18T15:37:16.377Z,99097.22
2023-01-18T15:39:59.734Z,99096.25
2023-01-18T15:42:38.628Z,99092.72
2023-01-18T15:45:17.232Z,99099.53
2023-01-18T15:47:50.194Z,99095.38
2023-01-18T15:50:22.656Z,99099.53
2023-01-18T15:53:01.885Z,99091.72
2023-01-18T15:55:40.825Z,99095.81
2023-01-18T15:58:14.224Z,99092.41
2023-01-18T16:00:55.796Z,99098.88
2023-01-18T16:03:35.831Z,99098.50
2023-01-18T16:06:13.849Z,99103.91
2023-01-18T16:09:00.747Z,99106.41
2023-01-18T16:11:34.702Z,99097.63
2023-01-18T16:14:07.577Z,99110.25
2023-01-18T16:16:39.125Z,99112.03
2023-01-18T16:19:30.805Z,99111.97
2023-01-18T16:22:06.016Z,99122.09
2023-01-18T16:24:37.740Z,99119.25
2023-01-18T16:27:18.943Z,99121.56
2023-01-18T16:29:48.206Z,99117.47
2023-01-18T16:32:30.054Z,99126.53
2023-01-18T16:35:20.997Z,99132.78
2023-01-18T16:37:48.805Z,99128.47
2023-01-18T16:40:21.696Z,99130.94
2023-01-18T16:42:54.677Z,99135.53
2023-01-18T16:45:21.576Z,99133.56
2023-01-18T16:47:48.692Z,99147.09
2023-01-18T16:50:16.951Z,99140.25
2023-01-18T16:52:44.771Z,99148.81
2023-01-18T16:55:16.529Z,99146.06
2023-01-18T16:57:47.910Z,99148.03
2023-01-18T17:00:25.906Z,99149.50
2023-01-18T17:02:53.327Z,99151.81
2023-01-18T17:05:20.746Z,99144.75
2023-01-18T17:07:47.918Z,99152.38
2023-01-18T17:10:39.241Z,99159.69
2023-01-18T17:13:09.825Z,99157.56
2023-01-18T17:15:40.749Z,99150.81
2023-01-18T17:18:20.857Z,99166.72
2023-01-18T17:20:59.914Z,99172.03
2023-01-18T17:23:26.646Z,99159.22
2023-01-18T17:25:53.600Z,99177.75
2023-01-18T17:28:20.421Z,99177.69
2023-01-18T17:30:49.326Z,99186.03
2023-01-18T17:33:21.988Z,99194.44
2023-01-18T17:35:53.586Z,99191.13
2023-01-18T17:38:27.232Z,99200.47
2023-01-18T17:40:55.919Z,99205.59
2023-01-18T17:43:33.455Z,99205.50
2023-01-18T17:46:05.624Z,99206.72
2023-01-18T17:48:32.382Z,99207.09
2023-01-18T17:50:59.151Z,99208.88
2023-01-18T17:53:26.010Z,99216.38
2023-01-18T17:55:52.735Z,99211.44
2023-01-18T17:58:19.480Z,99207.69
2023-01-18T18:00:46.247Z,99218.09
2023-01-18T18:03:13.279Z,99216.22
2023-01-18T18:05:40.315Z,99229.13
2023-01-18T18:08:07.744Z,99218.78
2023-01-18T18:10:34.285Z,99224.91
2023-01-18T18:13:01.724Z,99232.66
2023-01-18T18:15:28.716Z,99237.63
2023-01-18T18:17:55.341Z,99234.19
2023-01-18T18:20:23.016Z,99233.28
2023-01-18T18:22:49.991Z,99245.22
2023-01-18T18:25:17.036Z,99246.03
2023-01-18T18:27:46.534Z,99254.53
2023-01-18T18:30:15.236Z,99244.72
2023-01-18T18:32:41.950Z,99250.31
2023-01-18T18:35:24.375Z,99258.34
2023-01-18T18:37:53.610Z,99258.25
2023-01-18T18:40:20.483Z,99265.41
2023-01-18T18:43:00.674Z,99261.66
2023-01-18T18:45:31.018Z,99270.13
2023-01-18T18:47:57.937Z,99272.84
2023-01-18T18:50:24.475Z,99272.72
2023-01-18T18:52:51.097Z,99271.00
2023-01-18T18:55:18.433Z,99267.28
2023-01-18T18:57:45.320Z,99266.88
2023-01-18T19:00:12.924Z,99279.56
2023-01-18T19:02:39.881Z,99276.31
2023-01-18T19:05:06.897Z,99270.53
2023-01-18T19:07:34.781Z,99279.97
2023-01-18T19:10:01.369Z,99280.19
2023-01-18T19:12:27.984Z,99281.09
2023-01-18T19:14:54.548Z,99277.00
2023-01-18T19:17:29.720Z,99275.56
2023-01-18T19:19:57.605Z,99286.03
2023-01-18T19:22:24.254Z,99286.81
2023-01-18T19:24:51.106Z,99289.09
2023-01-18T19:27:17.805Z,99285.34
2023-01-18T19:29:44.538Z,99284.44
2023-01-18T19:32:11.067Z,99287.19
2023-01-18T19:34:41.006Z,99285.34
2023-01-18T19:37:07.554Z,99291.16
2023-01-18T19:39:36.947Z,99294.78
2023-01-18T19:42:04.407Z,99292.72
2023-01-18T19:44:31.109Z,99293.19
2023-01-18T19:46:57.807Z,99300.41
2023-01-18T19:49:25.643Z,99295.63
2023-01-18T19:51:53.089Z,99292.22
2023-01-18T19:54:20.162Z,99293.09
2023-01-18T19:56:46.779Z,99292.22
2023-01-18T19:59:14.972Z,99290.16
2023-01-18T20:01:42.056Z,99290.81
2023-01-18T20:04:08.976Z,99289.69
2023-01-18T20:06:39.780Z,99288.06
2023-01-18T20:09:17.821Z,99292.00
2023-01-18T20:11:45.859Z,99295.47
2023-01-18T20:14:12.524Z,99298.28
2023-01-18T20:16:39.492Z,99302.09
2023-01-18T20:19:06.221Z,99306.78
2023-01-18T20:21:32.844Z,99308.94
2023-01-18T20:23:59.541Z,99309.44
2023-01-18T20:26:35.776Z,99307.94
2023-01-18T20:29:07.524Z,99307.09
2023-01-18T20:31:39.331Z,99308.84
2023-01-18T20:34:06.705Z,99304.13
2023-01-18T20:36:34.944Z,99304.44
2023-01-18T20:39:02.440Z,99315.91
2023-01-18T20:41:29.079Z,99314.38
2023-01-18T20:43:55.812Z,99313.66
2023-01-18T20:46:22.444Z,99310.88
2023-01-18T20:48:49.576Z,99317.75
2023-01-18T20:51:17.791Z,99318.63
2023-01-18T20:53:44.383Z,99313.06
2023-01-18T20:56:27.846Z,99316.13
2023-01-18T20:58:56.999Z,99313.94
2023-01-18T21:01:23.790Z,99315.63
2023-01-18T21:03:55.128Z,99323.91
2023-01-18T21:06:22.078Z,99321.56
2023-01-18T21:08:52.415Z,99332.16
2023-01-18T21:11:22.817Z,99328.94
2023-01-18T21:13:50.473Z,99328.31
2023-01-18T21:16:17.667Z,99330.25
2023-01-18T21:18:44.332Z,99332.06
2023-01-18T21:21:11.067Z,99333.28
2023-01-18T21:23:40.507Z,99335.38
2023-01-18T21:26:09.972Z,99339.28
2023-01-18T21:28:37.146Z,99342.47
2023-01-18T21:31:05.297Z,99344.25
2023-01-18T21:33:32.532Z,99335.72
2023-01-18T21:36:12.057Z,99339.13
2023-01-18T21:38:38.586Z,99339.56
2023-01-18T21:41:23.814Z,99334.06
2023-01-18T21:44:11.465Z,99340.44
2023-01-18T21:46:43.914Z,99346.31
2023-01-18T21:49:42.971Z,99341.06
2023-01-18T21:52:35.670Z,99342.75
2023-01-18T21:55:02.217Z,99339.00
2023-01-18T21:57:28.747Z,99345.56
2023-01-18T21:59:55.282Z,99342.41
2023-01-18T22:02:22.487Z,99342.66
2023-01-18T22:05:03.143Z,99341.97
2023-01-18T22:07:32.921Z,99343.28
2023-01-18T22:10:05.175Z,99353.09
2023-01-18T22:12:34.909Z,99351.13
2023-01-18T22:15:02.139Z,99353.53
2023-01-18T22:17:28.970Z,99349.28
2023-01-18T22:19:55.812Z,99348.22
2023-01-18T22:22:22.346Z,99348.47
2023-01-18T22:24:49.031Z,99348.47
2023-01-18T22:27:15.611Z,99347.97
2023-01-18T22:29:42.217Z,99346.09
2023-01-18T22:32:08.879Z,99344.97
2023-01-18T22:34:35.643Z,99354.94
2023-01-18T22:37:03.229Z,99362.06
2023-01-18T22:39:29.939Z,99358.31
2023-01-18T22:41:56.599Z,99358.00
2023-01-18T22:44:23.327Z,99364.66
2023-01-18T22:46:49.936Z,99361.53
2023-01-18T22:49:16.675Z,99356.72
2023-01-18T22:51:43.678Z,99362.09
2023-01-18T22:54:10.423Z,99358.25
2023-01-18T22:56:37.016Z,99351.50
2023-01-18T22:59:03.780Z,99361.22
2023-01-18T23:01:32.600Z,99364.81
2023-01-18T23:04:02.134Z,99361.38
2023-01-18T23:06:42.273Z,99364.09
2023-01-18T23:09:10.210Z,99363.94
2023-01-18T23:11:37.623Z,99367.56
2023-01-18T23:14:24.085Z,99367.75
2023-01-18T23:17:09.648Z,99369.75
2023-01-18T23:19:36.704Z,99365.97
2023-01-18T23:22:06.978Z,99365.06
2023-01-18T23:24:35.432Z,99367.91
2023-01-18T23:27:03.232Z,99372.84
2023-01-18T23:29:29.874Z,99371.06
2023-01-18T23:31:58.257Z,99377.81
2023-01-18T23:34:25.339Z,99373.50
2023-01-18T23:36:52.164Z,99375.78
2023-01-18T23:39:37.149Z,99375.94
2023-01-18T23:42:22.487Z,99374.91
2023-01-18T23:45:07.828Z,99381.06
2023-01-18T23:47:53.841Z,99382.53
2023-01-18T23:50:39.226Z,99376.78
2023-01-18T23:53:24.581Z,99376.50
2023-01-18T23:55:52.824Z,99377.34
2023-01-18T23:58:19.447Z,99382.66
